createdAt,value
2022-11-29T00:00:03.137Z,1.96
2022-11-29T00:05:27.164Z,1.96
2022-11-29T00:10:29.968Z,1.95
2022-11-29T00:15:36.936Z,1.90
2022-11-29T00:20:40.045Z,1.83
2022-11-29T00:25:42.878Z,1.78
2022-11-29T00:30:45.768Z,1.75
2022-11-29T00:35:48.689Z,1.68
2022-11-29T00:40:52.647Z,1.65
2022-11-29T00:45:55.427Z,1.58
2022-11-29T00:50:58.483Z,1.54
2022-11-29T00:56:02.375Z,1.51
2022-11-29T01:01:06.084Z,1.48
2022-11-29T01:06:12.441Z,1.46
2022-11-29T01:11:27.280Z,1.43
2022-11-29T01:16:31.357Z,1.40
2022-11-29T01:21:34.383Z,1.36
2022-11-29T01:26:37.127Z,1.33
2022-11-29T01:31:39.985Z,1.30
2022-11-29T01:36:42.778Z,1.31
2022-11-29T01:41:45.623Z,1.28
2022-11-29T01:46:49.241Z,1.24
2022-11-29T01:52:02.653Z,1.21
2022-11-29T01:57:08.640Z,1.16
2022-11-29T02:02:35.886Z,1.14
2022-11-29T02:07:39.325Z,1.12
2022-11-29T02:13:13.770Z,1.08
2022-11-29T02:18:37.258Z,1.08
2022-11-29T02:23:42.808Z,1.08
2022-11-29T02:29:15.328Z,1.06
2022-11-29T02:34:44.709Z,1.06
2022-11-29T02:40:16.123Z,1.05
2022-11-29T02:45:38.688Z,1.04
2022-11-29T02:50:50.612Z,1.01
2022-11-29T02:56:07.226Z,1.01
2022-11-29T03:01:25.261Z,1.01
2022-11-29T03:06:43.303Z,1.02
2022-11-29T03:12:01.839Z,1.01
2022-11-29T03:17:30.836Z,1.01
2022-11-29T03:22:52.579Z,1.01
2022-11-29T03:28:14.936Z,1.01
2022-11-29T03:33:39.349Z,1.03
2022-11-29T03:38:46.556Z,1.03
2022-11-29T03:43:56.729Z,1.02
2022-11-29T03:49:25.325Z,1.01
2022-11-29T03:54:55.993Z,1.00
2022-11-29T04:00:07.500Z,0.99
2022-11-29T04:05:36.509Z,0.98
2022-11-29T04:10:58.302Z,0.97
2022-11-29T04:16:34.747Z,0.97
2022-11-29T04:21:58.240Z,0.98
2022-11-29T04:27:29.324Z,0.97
2022-11-29T04:32:44.415Z,0.97
2022-11-29T04:38:19.288Z,0.98
2022-11-29T04:43:40.560Z,0.98
2022-11-29T04:49:07.342Z,0.99
2022-11-29T04:54:31.460Z,0.98
2022-11-29T04:59:47.686Z,0.99
2022-11-29T05:05:20.015Z,0.99
2022-11-29T05:10:35.550Z,0.99
2022-11-29T05:16:03.258Z,0.99
2022-11-29T05:21:43.316Z,0.99
2022-11-29T05:26:52.958Z,0.98
2022-11-29T05:32:14.266Z,0.99
2022-11-29T05:37:27.293Z,0.98
2022-11-29T05:42:50.947Z,0.99
2022-11-29T05:48:24.473Z,1.01
2022-11-29T05:53:27.477Z,1.03
2022-11-29T05:59:00.609Z,1.04
2022-11-29T06:04:16.320Z,1.07
2022-11-29T06:09:34.251Z,1.08
2022-11-29T06:14:46.178Z,1.09
2022-11-29T06:20:04.351Z,1.10
2022-11-29T06:25:07.126Z,1.10
2022-11-29T06:30:21.281Z,1.12
2022-11-29T06:35:48.397Z,1.14
2022-11-29T06:40:53.999Z,1.17
2022-11-29T06:46:10.115Z,1.19
2022-11-29T06:51:39.887Z,1.25
2022-11-29T06:56:58.375Z,1.31
2022-11-29T07:02:17.377Z,1.32
2022-11-29T07:07:22.966Z,1.34
2022-11-29T07:12:26.896Z,1.33
2022-11-29T07:17:32.401Z,1.34
2022-11-29T07:22:55.565Z,1.36
2022-11-29T07:28:29.226Z,1.39
2022-11-29T07:33:48.387Z,1.39
2022-11-29T07:38:51.089Z,1.38
2022-11-29T07:44:03.315Z,1.39
2022-11-29T07:49:09.620Z,1.40
2022-11-29T07:54:17.621Z,1.41
2022-11-29T07:59:20.655Z,1.41
2022-11-29T08:04:23.933Z,1.43
2022-11-29T08:09:26.756Z,1.48
2022-11-29T08:14:33.209Z,1.50
2022-11-29T08:19:35.953Z,1.51
2022-11-29T08:24:39.031Z,1.52
2022-11-29T08:29:41.855Z,1.56
2022-11-29T08:34:45.716Z,1.56
2022-11-29T08:39:48.796Z,1.50
2022-11-29T08:44:51.587Z,1.48
2022-11-29T08:50:03.530Z,1.48
2022-11-29T08:55:07.278Z,1.50
2022-11-29T09:00:11.357Z,1.49
2022-11-29T09:05:15.316Z,1.49
2022-11-29T09:10:18.281Z,1.45
2022-11-29T09:15:21.083Z,1.42
2022-11-29T09:20:23.984Z,1.46
2022-11-29T09:25:27.199Z,1.51
2022-11-29T09:30:31.716Z,1.53
2022-11-29T09:35:34.958Z,1.54
2022-11-29T09:40:46.468Z,1.53
2022-11-29T09:45:57.206Z,1.48
2022-11-29T09:51:26.054Z,1.42
2022-11-29T09:56:41.459Z,1.39
2022-11-29T10:02:04.487Z,1.38
2022-11-29T10:07:22.357Z,1.39
2022-11-29T10:12:52.790Z,1.39
2022-11-29T10:18:03.439Z,1.43
2022-11-29T10:23:17.561Z,1.45
2022-11-29T10:28:27.250Z,1.51
2022-11-29T10:33:39.164Z,1.53
2022-11-29T10:38:46.169Z,1.56
2022-11-29T10:43:51.757Z,1.63
2022-11-29T10:48:55.073Z,1.66
2022-11-29T10:54:15.062Z,1.73
2022-11-29T10:59:23.685Z,1.78
2022-11-29T11:04:35.707Z,1.73
2022-11-29T11:09:47.233Z,1.72
2022-11-29T11:14:52.062Z,1.76
2022-11-29T11:20:21.359Z,1.69
2022-11-29T11:25:26.918Z,1.62
2022-11-29T11:30:29.805Z,1.62
2022-11-29T11:35:32.624Z,1.60
2022-11-29T11:40:35.382Z,1.58
2022-11-29T11:45:38.896Z,1.56
2022-11-29T11:50:52.157Z,1.59
2022-11-29T11:55:57.897Z,1.60
2022-11-29T12:01:23.330Z,1.60
2022-11-29T12:06:52.150Z,1.57
2022-11-29T12:12:16.761Z,1.53
2022-11-29T12:17:23.383Z,1.55
2022-11-29T12:22:33.028Z,1.56
2022-11-29T12:27:35.765Z,1.47
2022-11-29T12:33:06.475Z,1.41
2022-11-29T12:38:46.890Z,1.39
2022-11-29T12:44:04.486Z,1.39
2022-11-29T12:49:43.572Z,1.37
2022-11-29T12:54:46.558Z,1.37
2022-11-29T13:00:08.510Z,1.37
2022-11-29T13:05:11.212Z,1.36
2022-11-29T13:10:52.533Z,1.35
2022-11-29T13:16:08.512Z,1.36
2022-11-29T13:21:20.338Z,1.31
2022-11-29T13:26:26.323Z,1.27
2022-11-29T13:31:30.168Z,1.24
2022-11-29T13:36:57.621Z,1.25
2022-11-29T13:42:22.033Z,1.26
2022-11-29T13:47:25.038Z,1.24
2022-11-29T13:52:27.734Z,1.23
2022-11-29T13:58:14.954Z,1.21
2022-11-29T14:03:24.186Z,1.16
2022-11-29T14:08:42.217Z,1.14
2022-11-29T14:13:59.535Z,1.13
2022-11-29T14:19:08.326Z,1.09
2022-11-29T14:24:35.778Z,1.03
2022-11-29T14:29:54.189Z,1.00
2022-11-29T14:35:12.429Z,0.98
2022-11-29T14:40:33.513Z,0.97
2022-11-29T14:45:36.840Z,0.96
2022-11-29T14:50:40.736Z,0.91
2022-11-29T14:55:43.665Z,0.87
2022-11-29T15:00:49.228Z,0.85
2022-11-29T15:06:00.106Z,0.81
2022-11-29T15:11:11.633Z,0.72
2022-11-29T15:16:48.362Z,0.65
2022-11-29T15:22:04.024Z,0.63
2022-11-29T15:27:07.307Z,0.62
2022-11-29T15:32:13.717Z,0.61
2022-11-29T15:37:39.574Z,0.60
2022-11-29T15:42:47.288Z,0.61
2022-11-29T15:47:50.040Z,0.61
2022-11-29T15:52:57.705Z,0.65
2022-11-29T15:58:08.475Z,0.67
2022-11-29T16:03:21.527Z,0.65
2022-11-29T16:08:29.145Z,0.65
2022-11-29T16:13:33.919Z,0.66
2022-11-29T16:18:40.891Z,0.67
2022-11-29T16:23:44.763Z,0.70
2022-11-29T16:28:51.461Z,0.72
2022-11-29T16:33:54.646Z,0.69
2022-11-29T16:39:06.117Z,0.69
2022-11-29T16:44:50.100Z,0.71
2022-11-29T16:50:02.343Z,0.72
2022-11-29T16:55:10.047Z,0.73
2022-11-29T17:00:45.216Z,0.73
2022-11-29T17:05:49.262Z,0.74
2022-11-29T17:10:52.032Z,0.74
2022-11-29T17:15:54.757Z,0.76
2022-11-29T17:20:57.939Z,0.80
2022-11-29T17:26:02.673Z,0.82
2022-11-29T17:31:10.709Z,0.82
2022-11-29T17:36:16.731Z,0.86
2022-11-29T17:41:22.958Z,0.88
2022-11-29T17:46:31.937Z,0.89
2022-11-29T17:51:51.627Z,0.93
2022-11-29T17:56:55.224Z,0.94
2022-11-29T18:01:58.037Z,0.93
2022-11-29T18:07:01.655Z,0.95
2022-11-29T18:12:04.460Z,0.96
2022-11-29T18:17:07.946Z,0.97
2022-11-29T18:22:10.881Z,1.00
2022-11-29T18:27:13.686Z,1.00
2022-11-29T18:32:16.437Z,0.99
2022-11-29T18:37:38.984Z,1.02
2022-11-29T18:42:41.868Z,1.05
2022-11-29T18:47:45.941Z,1.06
2022-11-29T18:52:48.733Z,1.05
2022-11-29T18:57:53.948Z,1.05
2022-11-29T19:02:56.773Z,1.06
2022-11-29T19:08:00.343Z,1.08
2022-11-29T19:13:03.182Z,1.07
2022-11-29T19:18:06.056Z,1.06
2022-11-29T19:23:08.872Z,1.07
2022-11-29T19:28:14.208Z,1.07
2022-11-29T19:33:17.273Z,1.09
2022-11-29T19:38:20.097Z,1.10
2022-11-29T19:43:22.948Z,1.10
2022-11-29T19:48:25.748Z,1.13
2022-11-29T19:53:29.560Z,1.13
2022-11-29T19:58:32.925Z,1.13
2022-11-29T20:03:35.895Z,1.14
2022-11-29T20:08:38.723Z,1.15
2022-11-29T20:13:43.453Z,1.16
2022-11-29T20:18:51.114Z,1.18
2022-11-29T20:24:06.592Z,1.17
2022-11-29T20:29:10.329Z,1.15
2022-11-29T20:34:15.044Z,1.15
2022-11-29T20:39:28.789Z,1.13
2022-11-29T20:44:40.353Z,1.11
2022-11-29T20:49:43.482Z,1.12
2022-11-29T20:54:47.221Z,1.08
2022-11-29T20:59:50.029Z,1.04
2022-11-29T21:04:52.829Z,1.01
2022-11-29T21:10:00.941Z,1.01
2022-11-29T21:15:04.830Z,0.99
2022-11-29T21:20:09.341Z,0.98
2022-11-29T21:25:21.162Z,0.97
2022-11-29T21:30:25.080Z,0.95
2022-11-29T21:35:27.870Z,0.92
2022-11-29T21:40:30.670Z,0.88
2022-11-29T21:45:33.432Z,0.87
2022-11-29T21:50:36.272Z,0.85
2022-11-29T21:55:39.073Z,0.86
2022-11-29T22:00:41.977Z,0.86
2022-11-29T22:05:44.707Z,0.87
2022-11-29T22:10:47.979Z,0.84
2022-11-29T22:15:50.825Z,0.84
2022-11-29T22:20:54.106Z,0.82
2022-11-29T22:26:01.916Z,0.77
2022-11-29T22:31:07.084Z,0.77
2022-11-29T22:36:12.899Z,0.75
2022-11-29T22:41:16.646Z,0.74
2022-11-29T22:46:23.021Z,0.73
2022-11-29T22:51:31.586Z,0.73
2022-11-29T22:56:40.572Z,0.72
2022-11-29T23:01:43.589Z,0.73
2022-11-29T23:06:46.971Z,0.71
2022-11-29T23:11:56.250Z,0.71
2022-11-29T23:16:59.257Z,0.72
2022-11-29T23:22:02.537Z,0.72
2022-11-29T23:27:05.456Z,0.72
2022-11-29T23:32:08.307Z,0.71
2022-11-29T23:37:11.049Z,0.73
2022-11-29T23:42:13.758Z,0.73
2022-11-29T23:47:16.587Z,0.74
2022-11-29T23:52:19.337Z,0.75
2022-11-29T23:57:22.157Z,0.74
